Time;durP1;ratioP1;P1;durP2;ratioP2;P2;SDS_P1;SDS_P2;PMS_P1;PMS_P2;Temp;Humidity;BMP_temperature;BMP_pressure;BME280_temperature;BME280_humidity;BME280_pressure;Samples;Min_cycle;Max_cycle;Signal;HPM_P1;HPM_P2
2021/12/11 00:00:17;;;;;;;28.00;14.60;;;-1.50;99.90;;;;;;4983672;28;20049;-84
2021/12/11 00:02:45;;;;;;;32.08;15.73;;;-1.50;99.90;;;;;;4998872;28;20103;-84
2021/12/11 00:05:15;;;;;;;32.30;16.70;;;-1.50;99.90;;;;;;4983880;28;20033;-84
2021/12/11 00:07:42;;;;;;;24.38;14.38;;;-1.50;99.90;;;;;;5004130;28;20044;-84
2021/12/11 00:10:18;;;;;;;27.60;14.32;;;-1.60;99.90;;;;;;4999896;28;20069;-84
2021/12/11 00:12:49;;;;;;;27.88;14.45;;;-1.60;99.90;;;;;;4987461;28;20133;-84
2021/12/11 00:15:21;;;;;;;33.67;15.80;;;-1.60;99.90;;;;;;4985893;28;20556;-84
2021/12/11 00:17:47;;;;;;;27.15;15.52;;;-1.70;99.90;;;;;;5002006;28;20045;-84
2021/12/11 00:20:20;;;;;;;31.60;16.13;;;-1.60;99.90;;;;;;5003976;28;20042;-85
2021/12/11 00:22:46;;;;;;;33.50;16.42;;;-1.60;99.90;;;;;;5001826;28;20620;-85
2021/12/11 00:25:16;;;;;;;35.65;18.75;;;-1.60;99.90;;;;;;4998599;28;20052;-85
2021/12/11 00:27:44;;;;;;;35.90;18.20;;;-1.50;99.90;;;;;;4986225;28;20076;-85
2021/12/11 00:30:20;;;;;;;31.20;16.13;;;-1.60;99.90;;;;;;4985588;28;20065;-84
2021/12/11 00:32:45;;;;;;;38.25;18.10;;;-1.60;99.90;;;;;;4987694;28;20048;-85
2021/12/11 00:35:20;;;;;;;34.88;16.70;;;-1.50;99.90;;;;;;4988775;28;20026;-84
2021/12/11 00:37:48;;;;;;;34.33;16.73;;;-1.60;99.90;;;;;;5000033;28;20046;-85
2021/12/11 00:40:22;;;;;;;35.95;17.13;;;-1.50;99.90;;;;;;4999630;28;20399;-84
2021/12/11 00:43:02;;;;;;;33.83;17.53;;;-1.60;99.90;;;;;;4986764;28;20453;-84
2021/12/11 00:45:31;;;;;;;39.33;19.15;;;-1.60;99.90;;;;;;5000808;28;20281;-84
2021/12/11 00:48:00;;;;;;;41.28;19.92;;;-1.60;99.90;;;;;;4997658;28;20108;-85
2021/12/11 00:50:37;;;;;;;31.65;17.00;;;-1.60;99.90;;;;;;4999916;28;20044;-84
2021/12/11 00:53:11;;;;;;;29.27;16.13;;;-1.70;99.90;;;;;;5001247;28;20476;-85
2021/12/11 00:55:44;;;;;;;41.47;19.70;;;-1.70;99.90;;;;;;4996304;28;20053;-84
2021/12/11 00:58:15;;;;;;;34.47;17.10;;;-1.70;99.90;;;;;;5001122;28;20437;-85
2021/12/11 01:00:58;;;;;;;34.05;16.92;;;-1.70;99.90;;;;;;5016625;28;20090;-85
2021/12/11 01:03:35;;;;;;;39.15;19.45;;;-1.70;99.90;;;;;;4985819;28;20045;-85
2021/12/11 01:06:08;;;;;;;33.90;16.25;;;-1.60;99.90;;;;;;4983524;28;20040;-85
2021/12/11 01:08:39;;;;;;;34.25;17.73;;;-1.70;99.90;;;;;;4997329;28;20035;-85
2021/12/11 01:11:14;;;;;;;42.22;20.23;;;-1.70;99.90;;;;;;4985746;28;20034;-85
2021/12/11 01:13:43;;;;;;;;;;;-1.60;99.90;;;;;;5000521;28;20092;-84
2021/12/11 01:16:13;;;;;;;29.92;16.00;;;-1.70;99.90;;;;;;5000712;28;20016;-85
2021/12/11 01:18:43;;;;;;;31.90;16.60;;;-1.80;99.90;;;;;;4984787;28;20038;-85
2021/12/11 01:21:31;;;;;;;30.92;16.08;;;-1.80;99.90;;;;;;4984733;28;20042;-85
2021/12/11 01:26:31;;;;;;;27.08;14.98;;;-1.80;99.90;;;;;;4995165;28;20440;-85
2021/12/11 01:28:58;;;;;;;30.80;15.40;;;-1.80;99.90;;;;;;4985704;28;20120;-85
2021/12/11 01:31:24;;;;;;;29.80;16.90;;;-1.90;99.90;;;;;;5003019;28;20034;-84
2021/12/11 01:33:53;;;;;;;36.40;17.85;;;-1.90;99.90;;;;;;5001913;28;20056;-85
2021/12/11 01:36:19;;;;;;;45.03;21.35;;;-1.80;99.90;;;;;;5003581;28;20042;-84
2021/12/11 01:38:45;;;;;;;43.85;21.25;;;-1.80;99.90;;;;;;4987408;28;20044;-85
2021/12/11 01:41:22;;;;;;;38.15;19.35;;;-1.80;99.90;;;;;;4984281;28;20038;-84
2021/12/11 01:43:54;;;;;;;34.92;16.55;;;-1.80;99.90;;;;;;4989575;28;20041;-84
2021/12/11 01:46:22;;;;;;;34.63;17.27;;;-1.90;99.90;;;;;;4999911;28;20033;-85
2021/12/11 01:48:53;;;;;;;34.45;18.27;;;-2.00;99.90;;;;;;4986011;28;20500;-84
2021/12/11 01:51:40;;;;;;;30.88;17.38;;;-1.90;99.90;;;;;;4998210;28;20053;-84
2021/12/11 01:54:23;;;;;;;36.35;18.00;;;-2.00;99.90;;;;;;4983618;28;20042;-84
2021/12/11 01:56:59;;;;;;;35.22;17.83;;;-1.90;99.90;;;;;;4999660;28;20046;-85
2021/12/11 01:59:33;;;;;;;37.22;17.90;;;-2.00;99.90;;;;;;5003778;28;20069;-84
2021/12/11 02:02:20;;;;;;;34.85;16.92;;;-2.00;99.90;;;;;;4984279;28;20073;-85
2021/12/11 02:04:50;;;;;;;34.92;16.90;;;-2.00;99.90;;;;;;4973870;28;20413;-85
2021/12/11 02:07:22;;;;;;;35.38;19.40;;;-2.00;99.90;;;;;;4979087;28;20533;-84
2021/12/11 02:09:56;;;;;;;38.75;19.90;;;-1.90;99.90;;;;;;4996243;28;20033;-85
2021/12/11 02:12:43;;;;;;;42.45;20.10;;;-1.90;99.90;;;;;;4993917;28;20046;-85
2021/12/11 02:15:34;;;;;;;39.30;19.85;;;-2.00;99.90;;;;;;4986271;28;20069;-85
2021/12/11 02:18:33;;;;;;;40.70;19.80;;;-2.00;99.90;;;;;;4999803;28;20046;-85
2021/12/11 02:21:19;;;;;;;36.30;19.55;;;-2.10;99.90;;;;;;4984037;28;20102;-85
2021/12/11 02:24:02;;;;;;;36.40;19.77;;;-2.00;99.90;;;;;;4999566;28;20042;-85
2021/12/11 02:26:28;;;;;;;36.05;19.38;;;-2.00;99.90;;;;;;5002636;28;20038;-85
2021/12/11 02:29:11;;;;;;;41.92;21.80;;;-2.10;99.90;;;;;;4998775;28;20358;-85
2021/12/11 02:32:16;;;;;;;41.25;22.65;;;-2.10;99.90;;;;;;5001154;28;20535;-85
2021/12/11 02:34:58;;;;;;;49.22;24.40;;;-2.10;99.90;;;;;;4926728;28;20038;-85
2021/12/11 02:37:37;;;;;;;39.65;21.10;;;-2.10;99.90;;;;;;4985396;28;20537;-85
2021/12/11 02:40:36;;;;;;;35.03;18.90;;;-2.20;99.90;;;;;;4986492;28;20457;-85
2021/12/11 02:43:19;;;;;;;34.53;19.20;;;-2.30;99.90;;;;;;4973213;28;20053;-85
2021/12/11 02:46:06;;;;;;;45.55;22.23;;;-2.40;99.90;;;;;;5001597;28;20037;-85
2021/12/11 02:48:49;;;;;;;34.67;19.92;;;-2.20;99.90;;;;;;4995433;28;20038;-84
2021/12/11 02:51:30;;;;;;;39.88;18.98;;;-2.30;99.90;;;;;;4996555;28;20132;-85
2021/12/11 02:54:07;;;;;;;33.53;18.50;;;-2.30;99.90;;;;;;4999619;28;20084;-85
2021/12/11 02:56:43;;;;;;;43.95;22.38;;;-2.40;99.90;;;;;;5000992;28;20113;-85
2021/12/11 02:59:15;;;;;;;40.50;18.63;;;-2.20;99.90;;;;;;5001807;28;20398;-85
2021/12/11 03:01:55;;;;;;;33.78;18.17;;;-2.40;99.90;;;;;;4983338;28;20583;-85
2021/12/11 03:04:31;;;;;;;38.88;19.92;;;-2.20;99.90;;;;;;5013880;28;20041;-85
2021/12/11 03:06:58;;;;;;;43.70;20.08;;;-2.30;99.90;;;;;;4985738;28;20038;-85
2021/12/11 03:09:28;;;;;;;43.22;20.92;;;-2.20;99.90;;;;;;4999457;28;20374;-85
2021/12/11 03:11:56;;;;;;;35.15;19.48;;;-2.20;99.90;;;;;;4985114;28;20077;-85
2021/12/11 03:14:24;;;;;;;35.00;18.63;;;-2.20;99.90;;;;;;4998947;28;20087;-83
2021/12/11 03:16:51;;;;;;;37.13;19.95;;;-2.30;99.90;;;;;;4995900;28;20037;-84
2021/12/11 03:19:23;;;;;;;38.42;19.88;;;-2.30;99.90;;;;;;4996442;28;20041;-85
2021/12/11 03:21:52;;;;;;;35.08;18.60;;;-2.30;99.90;;;;;;5001586;28;20052;-85
2021/12/11 03:24:19;;;;;;;32.38;16.85;;;-2.30;99.90;;;;;;4985981;28;20472;-84
2021/12/11 03:26:48;;;;;;;35.60;19.38;;;-2.40;99.90;;;;;;4987357;28;20489;-85
2021/12/11 03:29:14;;;;;;;37.17;20.60;;;-2.30;99.90;;;;;;5000175;28;20518;-85
2021/12/11 03:31:42;;;;;;;38.22;20.27;;;-2.30;99.90;;;;;;4982757;28;20240;-85
2021/12/11 03:34:15;;;;;;;42.90;18.58;;;-2.30;99.90;;;;;;4982743;28;22070;-84
2021/12/11 03:36:42;;;;;;;36.10;18.55;;;-2.20;99.90;;;;;;4999894;28;20034;-84
2021/12/11 03:39:16;;;;;;;37.63;18.60;;;-2.30;99.90;;;;;;4984587;28;20061;-84
2021/12/11 03:41:43;;;;;;;48.80;23.30;;;-2.20;99.90;;;;;;5000190;28;20033;-85
2021/12/11 03:44:10;;;;;;;50.35;22.20;;;-2.10;99.90;;;;;;4987020;28;20053;-85
2021/12/11 03:46:39;;;;;;;54.05;22.60;;;-2.00;99.90;;;;;;5001869;28;20365;-84
2021/12/11 03:49:17;;;;;;;47.42;23.83;;;-2.00;99.90;;;;;;5000727;28;20042;-85
2021/12/11 03:51:49;;;;;;;45.75;22.35;;;-1.90;99.90;;;;;;5001569;28;20058;-85
2021/12/11 03:54:20;;;;;;;52.65;23.58;;;-1.80;99.90;;;;;;4999470;28;20064;-84
2021/12/11 03:56:46;;;;;;;54.33;25.48;;;-1.90;99.90;;;;;;4983162;28;20111;-86
2021/12/11 03:59:13;;;;;;;51.65;22.35;;;-1.80;99.90;;;;;;4993481;28;20037;-85
2021/12/11 04:01:56;;;;;;;55.42;24.42;;;-1.80;99.90;;;;;;5000510;28;20041;-85
2021/12/11 04:04:42;;;;;;;63.05;26.85;;;-1.90;99.90;;;;;;4993254;28;20141;-85
2021/12/11 04:07:12;;;;;;;44.13;22.20;;;-1.90;99.90;;;;;;5001324;28;20042;-84
2021/12/11 04:09:39;;;;;;;40.33;20.88;;;-2.00;99.90;;;;;;4999645;28;20065;-85
2021/12/11 04:12:06;;;;;;;49.95;23.80;;;-2.00;99.90;;;;;;5016645;28;20060;-85
2021/12/11 04:14:35;;;;;;;49.38;23.92;;;-2.00;99.90;;;;;;4992896;28;20045;-85
2021/12/11 04:17:01;;;;;;;54.22;25.48;;;-1.80;99.90;;;;;;4982736;28;20120;-85
2021/12/11 04:19:31;;;;;;;46.85;23.00;;;-2.00;99.90;;;;;;4985058;28;20042;-85
2021/12/11 04:21:57;;;;;;;41.03;21.27;;;-2.00;99.90;;;;;;5003450;28;20049;-85
2021/12/11 04:24:25;;;;;;;42.47;22.00;;;-2.00;99.90;;;;;;4981377;28;20064;-85
2021/12/11 04:26:53;;;;;;;45.10;24.50;;;-2.20;99.90;;;;;;5002698;28;20048;-85
2021/12/11 04:29:23;;;;;;;45.95;23.45;;;-2.00;99.90;;;;;;4983409;28;20037;-85
2021/12/11 04:31:49;;;;;;;37.92;20.48;;;-2.10;99.90;;;;;;4982284;28;20092;-85
2021/12/11 04:34:18;;;;;;;39.35;20.02;;;-2.30;99.90;;;;;;4982814;28;20064;-85
2021/12/11 04:36:52;;;;;;;41.38;20.92;;;-2.40;99.90;;;;;;4983699;28;20077;-85
2021/12/11 04:39:20;;;;;;;49.90;23.75;;;-2.30;99.90;;;;;;4983553;28;20045;-85
2021/12/11 04:41:56;;;;;;;42.60;22.92;;;-2.20;99.90;;;;;;4985352;28;20069;-85
2021/12/11 04:44:33;;;;;;;38.22;19.98;;;-2.20;99.90;;;;;;4997229;28;20615;-85
2021/12/11 04:47:01;;;;;;;33.88;16.50;;;-2.50;99.90;;;;;;4997604;28;20049;-85
2021/12/11 04:49:45;;;;;;;33.83;17.48;;;-2.60;99.90;;;;;;5000944;28;20464;-85
2021/12/11 04:52:33;;;;;;;51.72;23.23;;;-2.60;99.90;;;;;;5003874;28;20045;-85
2021/12/11 05:00:45;;;;;;;37.88;19.48;;;-2.40;99.90;;;;;;5006742;28;20053;-85
2021/12/11 05:11:26;;;;;;;49.80;23.98;;;-2.10;99.90;;;;;;5016932;28;20045;-85
2021/12/11 05:13:37;;;;;;;61.35;27.75;;;-2.10;99.90;;;;;;4993837;28;20490;-85
2021/12/11 05:16:08;;;;;;;63.97;27.00;;;-2.10;99.90;;;;;;4986538;28;20516;-85
2021/12/11 05:18:35;;;;;;;50.78;24.67;;;-2.00;99.90;;;;;;5000351;28;20077;-85
2021/12/11 05:21:06;;;;;;;51.78;24.88;;;-2.10;99.90;;;;;;5000611;28;20121;-85
2021/12/11 05:23:34;;;;;;;49.65;23.60;;;-2.00;99.90;;;;;;5000753;28;20088;-85
2021/12/11 05:26:03;;;;;;;55.70;25.83;;;-2.20;99.90;;;;;;4984312;28;20029;-84
2021/12/11 05:28:28;;;;;;;57.40;25.67;;;-2.10;99.90;;;;;;4995885;28;20418;-85
2021/12/11 05:30:59;;;;;;;58.92;28.40;;;-2.10;99.90;;;;;;4985591;28;20041;-85
2021/12/11 05:33:25;;;;;;;50.55;25.35;;;-2.10;99.90;;;;;;5000117;28;20580;-85
2021/12/11 05:35:52;;;;;;;51.22;23.13;;;-2.20;99.90;;;;;;4986419;28;20050;-85
2021/12/11 05:38:26;;;;;;;43.00;21.15;;;-2.20;99.90;;;;;;5005434;28;20046;-85
2021/12/11 05:40:56;;;;;;;44.53;22.85;;;-2.30;99.90;;;;;;5002745;28;20051;-85
2021/12/11 05:43:22;;;;;;;37.28;19.63;;;-2.20;99.90;;;;;;4985230;28;20490;-85
2021/12/11 05:45:48;;;;;;;52.22;22.83;;;-2.40;99.90;;;;;;5002147;28;20320;-85
2021/12/11 05:48:15;;;;;;;49.15;23.55;;;-2.20;99.90;;;;;;4998222;28;20493;-85
2021/12/11 05:50:53;;;;;;;47.45;22.05;;;-2.30;99.90;;;;;;4999002;28;20129;-85
2021/12/11 05:53:21;;;;;;;42.65;22.25;;;-2.20;99.90;;;;;;4986250;28;20120;-85
2021/12/11 05:55:48;;;;;;;43.60;23.63;;;-2.30;99.90;;;;;;5002720;28;20139;-85
2021/12/11 05:58:24;;;;;;;48.22;24.77;;;-2.30;99.90;;;;;;5001713;28;20125;-85
2021/12/11 06:00:53;;;;;;;46.88;24.48;;;-2.40;99.90;;;;;;4982268;28;20046;-85
2021/12/11 06:03:18;;;;;;;47.78;24.10;;;-2.30;99.90;;;;;;4998184;28;20374;-85
2021/12/11 06:05:45;;;;;;;47.13;23.10;;;-2.40;99.90;;;;;;5000111;28;20038;-84
2021/12/11 06:08:11;;;;;;;53.28;24.65;;;-2.40;99.90;;;;;;4986188;28;20058;-85
2021/12/11 06:10:42;;;;;;;52.15;24.35;;;-2.40;99.90;;;;;;4980631;28;20038;-85
2021/12/11 06:13:09;;;;;;;53.95;25.90;;;-2.30;99.90;;;;;;4985130;28;20135;-85
2021/12/11 06:15:35;;;;;;;43.20;23.63;;;-2.30;99.90;;;;;;4997618;28;20038;-84
2021/12/11 06:18:02;;;;;;;57.63;27.25;;;-2.30;99.90;;;;;;4985854;28;20139;-85
2021/12/11 06:20:30;;;;;;;53.17;25.10;;;-2.30;99.90;;;;;;4999908;28;20254;-85
2021/12/11 06:22:56;;;;;;;59.45;28.40;;;-2.30;99.90;;;;;;4987320;28;20061;-85
2021/12/11 06:25:28;;;;;;;76.35;34.65;;;-2.20;99.90;;;;;;4978740;28;20038;-85
2021/12/11 06:27:54;;;;;;;52.92;27.27;;;-2.20;99.90;;;;;;4997146;28;20042;-85
2021/12/11 06:30:21;;;;;;;52.45;25.02;;;-2.30;99.90;;;;;;5001151;28;20040;-85
2021/12/11 06:32:48;;;;;;;50.17;24.40;;;-2.30;99.90;;;;;;4979581;28;20033;-85
2021/12/11 06:35:27;;;;;;;45.67;24.02;;;-2.30;99.90;;;;;;4982024;28;20038;-85
2021/12/11 06:37:53;;;;;;;52.30;24.63;;;-2.30;99.90;;;;;;5002577;28;20432;-85
2021/12/11 06:40:20;;;;;;;54.38;24.80;;;-2.30;99.90;;;;;;4978873;28;20113;-85
2021/12/11 06:42:46;;;;;;;49.13;24.55;;;-2.20;99.90;;;;;;5001961;28;20033;-85
2021/12/11 06:45:12;;;;;;;51.03;25.27;;;-2.30;99.90;;;;;;4997720;28;20507;-85
2021/12/11 06:47:38;;;;;;;52.45;25.75;;;-2.30;99.90;;;;;;4986299;28;20037;-85
2021/12/11 06:50:10;;;;;;;56.65;26.80;;;-2.20;99.90;;;;;;4998798;28;20177;-85
2021/12/11 06:52:36;;;;;;;63.28;29.15;;;-2.20;99.90;;;;;;5000734;28;20560;-85
2021/12/11 06:55:04;;;;;;;55.00;26.52;;;-2.20;99.90;;;;;;4986428;28;20045;-85
2021/12/11 06:57:30;;;;;;;53.42;26.23;;;-2.30;99.90;;;;;;4999959;28;20053;-85
2021/12/11 06:59:55;;;;;;;50.40;26.08;;;-2.30;99.90;;;;;;4982355;28;20041;-85
2021/12/11 07:02:21;;;;;;;52.67;25.23;;;-2.20;99.90;;;;;;4996302;28;20038;-85
2021/12/11 07:04:54;;;;;;;52.72;24.73;;;-2.10;99.90;;;;;;4991988;28;20358;-85
2021/12/11 07:07:25;;;;;;;59.20;28.48;;;-2.20;99.90;;;;;;5002088;28;20049;-85
2021/12/11 07:09:52;;;;;;;57.70;26.17;;;-2.20;99.90;;;;;;4982904;28;20037;-85
2021/12/11 07:12:19;;;;;;;54.05;26.70;;;-2.10;99.90;;;;;;4984573;28;20073;-85
2021/12/11 07:14:46;;;;;;;63.92;27.08;;;-2.00;99.90;;;;;;4984287;28;20057;-85
2021/12/11 07:17:12;;;;;;;52.55;26.50;;;-2.10;99.90;;;;;;4988603;28;20044;-85
2021/12/11 07:19:39;;;;;;;54.00;26.92;;;-2.00;99.90;;;;;;4980501;28;20046;-85
2021/12/11 07:22:05;;;;;;;63.55;27.45;;;-2.10;99.90;;;;;;4984949;28;20087;-85
2021/12/11 07:24:39;;;;;;;58.75;28.42;;;-2.00;99.90;;;;;;4982235;28;20133;-85
2021/12/11 07:27:07;;;;;;;56.42;26.90;;;-2.10;99.90;;;;;;4997594;28;20044;-85
2021/12/11 07:29:35;;;;;;;63.10;28.80;;;-2.00;99.90;;;;;;5000087;28;20044;-85
2021/12/11 07:32:02;;;;;;;66.50;30.02;;;-2.00;99.90;;;;;;4973196;28;20442;-85
2021/12/11 07:34:28;;;;;;;63.53;28.75;;;-1.90;99.90;;;;;;4980173;28;20061;-85
2021/12/11 07:36:55;;;;;;;66.72;28.35;;;-2.00;99.90;;;;;;5002411;28;20038;-85
2021/12/11 07:39:21;;;;;;;56.63;28.45;;;-1.90;99.90;;;;;;4998031;28;20049;-85
2021/12/11 07:41:49;;;;;;;66.70;30.48;;;-1.90;99.90;;;;;;4984574;28;20217;-85
2021/12/11 07:44:16;;;;;;;65.18;32.08;;;-2.00;99.90;;;;;;4983515;28;20042;-85
2021/12/11 07:46:43;;;;;;;60.88;29.58;;;-2.00;99.90;;;;;;4984104;28;20042;-85
2021/12/11 07:49:09;;;;;;;59.75;29.55;;;-2.00;99.90;;;;;;4998917;28;20473;-85
2021/12/11 07:51:36;;;;;;;55.28;28.45;;;-2.00;99.90;;;;;;4984080;28;20052;-85
2021/12/11 07:54:06;;;;;;;64.38;29.90;;;-2.00;99.90;;;;;;4998202;28;20416;-85
2021/12/11 07:56:33;;;;;;;58.42;27.30;;;-2.00;99.90;;;;;;4984563;28;20477;-84
2021/12/11 07:59:03;;;;;;;65.30;30.02;;;-1.80;99.90;;;;;;5001960;28;20033;-85
2021/12/11 08:01:30;;;;;;;70.25;30.02;;;-1.90;99.90;;;;;;4983751;28;20172;-85
2021/12/11 08:03:59;;;;;;;58.20;28.67;;;-1.80;99.90;;;;;;4977837;28;20111;-85
2021/12/11 08:06:25;;;;;;;61.65;29.40;;;-1.80;99.90;;;;;;4981814;28;20038;-85
2021/12/11 08:08:51;;;;;;;72.35;34.45;;;-1.80;99.90;;;;;;5003038;28;20049;-85
2021/12/11 08:11:18;;;;;;;74.90;34.17;;;-1.80;99.90;;;;;;4998236;28;20214;-85
2021/12/11 08:13:47;;;;;;;69.13;33.58;;;-1.70;99.90;;;;;;5003891;28;20148;-85
2021/12/11 08:16:20;;;;;;;67.90;32.08;;;-1.60;99.90;;;;;;4992899;28;20050;-85
2021/12/11 08:18:46;;;;;;;69.20;31.90;;;-1.70;99.90;;;;;;4992364;28;20149;-86
2021/12/11 08:21:12;;;;;;;67.00;30.25;;;-1.70;99.90;;;;;;5007043;28;20209;-85
2021/12/11 08:23:44;;;;;;;68.95;32.45;;;-1.60;99.90;;;;;;4988144;28;20398;-85
2021/12/11 08:26:11;;;;;;;66.82;30.52;;;-1.60;99.90;;;;;;5001987;28;20125;-85
2021/12/11 08:28:37;;;;;;;71.07;31.02;;;-1.50;99.90;;;;;;4986788;28;20034;-85
2021/12/11 08:31:06;;;;;;;74.47;33.42;;;-1.40;99.90;;;;;;4988462;28;20104;-85
2021/12/11 08:33:32;;;;;;;77.65;35.78;;;-1.40;99.90;;;;;;4975954;28;20049;-85
2021/12/11 08:35:58;;;;;;;86.00;36.50;;;-1.30;99.90;;;;;;4999724;28;20050;-85
2021/12/11 08:38:29;;;;;;;88.57;37.45;;;-1.10;99.90;;;;;;5000624;28;20149;-85
2021/12/11 08:40:57;;;;;;;86.50;37.45;;;-1.00;99.90;;;;;;4980120;28;20118;-85
2021/12/11 08:43:33;;;;;;;84.85;38.67;;;-1.00;99.90;;;;;;5002879;28;20042;-85
2021/12/11 08:48:38;;;;;;;106.05;45.05;;;-0.60;99.90;;;;;;4996602;28;20041;-84
2021/12/11 08:51:14;;;;;;;123.55;47.72;;;-0.60;99.90;;;;;;4999801;28;20049;-85
2021/12/11 08:53:40;;;;;;;108.97;43.60;;;-0.50;99.90;;;;;;4987596;28;20066;-85
2021/12/11 08:56:09;;;;;;;109.18;42.35;;;-0.50;99.90;;;;;;4987588;28;20053;-85
2021/12/11 08:58:36;;;;;;;112.30;45.38;;;-0.20;99.90;;;;;;5004998;28;20140;-85
2021/12/11 09:01:24;;;;;;;114.43;45.05;;;-0.30;99.90;;;;;;5002343;28;20072;-85
2021/12/11 09:04:10;;;;;;;104.35;42.67;;;-0.10;99.90;;;;;;5001924;28;20037;-85
2021/12/11 09:07:04;;;;;;;108.97;42.60;;;-0.10;99.90;;;;;;5007288;28;20041;-85
2021/12/11 09:09:34;;;;;;;116.45;43.97;;;0.20;99.90;;;;;;5005305;28;20116;-84
2021/12/11 09:12:06;;;;;;;112.57;43.58;;;0.10;99.90;;;;;;5004282;28;20121;-85
2021/12/11 09:14:34;;;;;;;110.97;44.15;;;0.20;99.90;;;;;;5002929;28;20124;-85
2021/12/11 09:17:10;;;;;;;106.90;42.92;;;0.20;99.90;;;;;;4986108;28;20257;-85
2021/12/11 09:19:47;;;;;;;116.28;47.33;;;0.40;99.90;;;;;;4996222;28;20628;-85
2021/12/11 09:22:27;;;;;;;134.88;49.60;;;0.50;99.90;;;;;;5000426;28;20080;-85
2021/12/11 09:24:59;;;;;;;120.85;48.55;;;0.60;99.90;;;;;;4994022;28;20050;-84
2021/12/11 09:27:33;;;;;;;114.93;47.75;;;0.70;99.90;;;;;;4988636;28;20037;-85
2021/12/11 09:30:23;;;;;;;128.55;48.65;;;0.80;99.90;;;;;;5003658;28;20033;-84
2021/12/11 09:33:00;;;;;;;127.80;47.30;;;0.70;99.90;;;;;;4968935;28;20050;-84
2021/12/11 09:35:45;;;;;;;120.60;45.95;;;0.80;99.90;;;;;;4988604;28;20029;-84
2021/12/11 09:38:17;;;;;;;117.40;45.13;;;0.90;99.90;;;;;;4986076;28;20493;-85
2021/12/11 09:40:43;;;;;;;113.55;43.55;;;0.90;99.90;;;;;;5006688;28;20033;-85
2021/12/11 09:43:36;;;;;;;113.05;46.05;;;1.00;99.90;;;;;;4984706;28;20056;-84
2021/12/11 09:46:06;;;;;;;119.25;44.88;;;1.00;99.90;;;;;;4993040;28;20583;-84
2021/12/11 09:48:37;;;;;;;117.63;44.70;;;1.20;99.90;;;;;;4999953;28;20396;-84
2021/12/11 09:51:09;;;;;;;115.80;44.28;;;1.30;99.90;;;;;;4996871;28;20305;-85
2021/12/11 09:53:38;;;;;;;105.82;45.78;;;1.30;99.90;;;;;;4987782;28;20045;-85
2021/12/11 09:56:08;;;;;;;124.15;47.83;;;1.40;99.90;;;;;;4987629;28;20137;-84
2021/12/11 09:58:37;;;;;;;112.80;43.63;;;1.40;99.90;;;;;;4985602;28;20041;-84
2021/12/11 10:01:07;;;;;;;99.50;42.83;;;1.40;99.90;;;;;;4984980;28;20402;-83
2021/12/11 10:03:40;;;;;;;107.82;45.25;;;1.60;99.90;;;;;;4975191;28;20042;-84
2021/12/11 10:06:14;;;;;;;94.50;41.95;;;1.70;99.90;;;;;;4990771;28;20103;-84
2021/12/11 10:08:56;;;;;;;98.45;42.92;;;1.60;99.90;;;;;;5001858;28;20034;-84
2021/12/11 10:11:30;;;;;;;100.65;41.97;;;1.70;99.90;;;;;;5000943;28;20165;-84
2021/12/11 10:14:08;;;;;;;104.13;41.47;;;1.80;99.90;;;;;;4982149;28;20092;-84
2021/12/11 10:16:41;;;;;;;92.82;39.67;;;1.80;99.90;;;;;;5000543;28;20034;-83
2021/12/11 10:19:16;;;;;;;97.53;39.78;;;1.80;99.90;;;;;;4995021;28;20125;-83
2021/12/11 10:21:49;;;;;;;95.72;40.97;;;1.90;99.90;;;;;;4984219;28;20116;-83
2021/12/11 10:24:20;;;;;;;94.68;40.72;;;2.10;99.90;;;;;;4982215;28;20078;-83
2021/12/11 10:26:46;;;;;;;90.68;38.92;;;2.10;99.90;;;;;;5000634;28;20168;-83
2021/12/11 10:29:15;;;;;;;81.80;37.97;;;2.20;99.90;;;;;;4998825;28;20034;-83
2021/12/11 10:31:45;;;;;;;86.80;39.30;;;2.20;99.90;;;;;;4986366;28;20080;-84
2021/12/11 10:34:15;;;;;;;93.68;39.30;;;2.20;99.90;;;;;;4983628;28;20088;-83
2021/12/11 10:36:46;;;;;;;87.13;38.75;;;2.30;99.90;;;;;;4984885;28;20049;-84
2021/12/11 10:39:16;;;;;;;84.30;39.25;;;2.40;99.90;;;;;;4997578;28;20048;-83
2021/12/11 10:41:45;;;;;;;85.88;37.33;;;2.40;99.90;;;;;;4976356;28;20038;-84
2021/12/11 10:44:26;;;;;;;84.00;38.80;;;2.50;99.90;;;;;;4991227;28;20045;-84
2021/12/11 10:47:08;;;;;;;88.43;38.22;;;2.60;99.90;;;;;;4999729;28;20042;-84
2021/12/11 10:49:39;;;;;;;89.50;39.25;;;2.60;99.90;;;;;;4993426;28;20840;-84
2021/12/11 10:52:14;;;;;;;88.15;38.17;;;2.60;99.90;;;;;;4985077;28;20041;-84
2021/12/11 10:54:41;;;;;;;78.85;36.42;;;2.70;99.90;;;;;;5000985;28;20077;-84
2021/12/11 10:57:08;;;;;;;79.55;37.75;;;2.70;99.90;;;;;;4984544;28;20219;-83
2021/12/11 10:59:37;;;;;;;73.00;35.97;;;2.80;99.90;;;;;;4999659;28;20512;-84
2021/12/11 11:02:27;;;;;;;78.35;37.20;;;2.80;99.90;;;;;;4981474;28;20050;-83
2021/12/11 11:05:09;;;;;;;78.53;35.63;;;2.80;99.90;;;;;;4976325;28;20111;-83
2021/12/11 11:07:36;;;;;;;74.32;34.97;;;2.90;99.90;;;;;;4997657;28;20104;-84
2021/12/11 11:10:05;;;;;;;73.20;35.28;;;3.00;99.90;;;;;;4995259;28;20069;-84
2021/12/11 11:12:34;;;;;;;65.28;33.67;;;3.00;99.90;;;;;;4993754;28;20110;-83
2021/12/11 11:15:00;;;;;;;65.20;33.03;;;3.00;99.90;;;;;;4997803;28;20417;-83
2021/12/11 11:17:30;;;;;;;69.75;33.63;;;3.10;99.90;;;;;;4996083;28;20038;-83
2021/12/11 11:19:57;;;;;;;70.80;35.17;;;3.20;99.90;;;;;;4981285;28;20045;-83
2021/12/11 11:22:32;;;;;;;64.80;34.67;;;3.30;99.90;;;;;;4998938;28;20742;-83
2021/12/11 11:25:09;;;;;;;65.68;34.72;;;3.20;99.90;;;;;;4994010;28;20120;-83
2021/12/11 11:27:37;;;;;;;62.33;33.40;;;3.30;99.90;;;;;;4986961;28;20040;-82
2021/12/11 11:30:06;;;;;;;61.83;33.95;;;3.30;99.90;;;;;;4991822;28;20124;-83
2021/12/11 11:32:32;;;;;;;64.55;34.20;;;3.40;99.90;;;;;;4995873;28;20030;-83
2021/12/11 11:35:11;;;;;;;63.75;34.28;;;3.50;99.90;;;;;;4986049;28;20034;-83
2021/12/11 11:37:37;;;;;;;61.35;33.78;;;3.70;99.90;;;;;;4997766;28;20473;-83
2021/12/11 11:40:07;;;;;;;69.95;35.17;;;3.80;99.90;;;;;;4984322;28;20121;-83
2021/12/11 11:42:34;;;;;;;61.70;31.70;;;4.00;99.90;;;;;;4987244;28;20030;-83
2021/12/11 11:45:01;;;;;;;54.70;30.55;;;4.10;99.90;;;;;;4995618;28;20050;-83
2021/12/11 11:47:27;;;;;;;53.08;29.75;;;4.20;99.90;;;;;;4994212;28;20049;-83
2021/12/11 11:49:58;;;;;;;56.78;30.10;;;4.00;99.90;;;;;;4994990;28;20393;-84
2021/12/11 11:52:26;;;;;;;52.85;30.42;;;4.10;99.90;;;;;;5001158;28;20049;-83
2021/12/11 11:54:56;;;;;;;53.30;29.83;;;4.00;99.90;;;;;;4983752;28;20045;-83
2021/12/11 11:57:38;;;;;;;57.38;31.88;;;4.00;99.90;;;;;;4993168;28;20103;-83
2021/12/11 12:00:14;;;;;;;53.45;30.52;;;4.10;99.90;;;;;;5003240;28;20409;-83
2021/12/11 12:02:43;;;;;;;52.33;29.77;;;4.10;99.90;;;;;;4984211;28;20578;-83
2021/12/11 12:05:10;;;;;;;51.45;30.00;;;4.00;99.90;;;;;;4993050;28;20146;-83
2021/12/11 12:07:37;;;;;;;52.38;29.20;;;4.10;99.90;;;;;;4985713;28;20075;-82
2021/12/11 12:10:13;;;;;;;51.80;29.67;;;4.20;99.90;;;;;;4984191;28;20053;-82
2021/12/11 12:12:39;;;;;;;51.90;28.90;;;4.20;99.90;;;;;;4982472;28;20034;-83
2021/12/11 12:15:11;;;;;;;50.08;29.42;;;4.20;99.90;;;;;;4993130;28;20468;-83
2021/12/11 12:17:37;;;;;;;48.63;28.77;;;4.30;99.90;;;;;;4977132;28;20088;-82
2021/12/11 12:20:10;;;;;;;51.13;30.65;;;4.30;99.90;;;;;;4981510;28;20038;-83
2021/12/11 12:22:40;;;;;;;47.88;28.98;;;4.30;99.90;;;;;;4991440;28;20477;-83
2021/12/11 12:25:07;;;;;;;51.47;30.50;;;4.30;99.90;;;;;;4998214;28;20270;-83
2021/12/11 12:27:36;;;;;;;52.38;30.08;;;4.20;99.90;;;;;;4997459;28;20038;-82
2021/12/11 12:30:07;;;;;;;47.72;27.63;;;4.20;99.90;;;;;;4994151;28;20135;-82
2021/12/11 12:32:36;;;;;;;51.97;29.48;;;4.10;99.90;;;;;;4997140;28;20101;-82
2021/12/11 12:35:12;;;;;;;47.38;29.20;;;4.10;99.90;;;;;;4994352;28;20042;-82
2021/12/11 12:37:39;;;;;;;48.97;29.35;;;4.10;99.90;;;;;;4982573;28;20049;-82
2021/12/11 12:40:09;;;;;;;48.78;27.92;;;4.00;99.90;;;;;;4990650;28;20053;-82
2021/12/11 12:42:49;;;;;;;47.78;28.80;;;4.00;99.90;;;;;;5000216;28;20038;-82
2021/12/11 12:45:18;;;;;;;44.60;28.05;;;4.00;99.90;;;;;;4997989;28;20100;-82
2021/12/11 12:47:48;;;;;;;42.72;27.30;;;3.90;99.90;;;;;;4997459;28;20042;-82
2021/12/11 12:50:19;;;;;;;42.08;27.27;;;4.00;99.90;;;;;;4980339;28;20041;-82
2021/12/11 12:52:47;;;;;;;50.63;29.83;;;4.00;99.90;;;;;;5000799;28;20145;-82
2021/12/11 12:55:22;;;;;;;47.95;28.98;;;4.10;99.90;;;;;;4982643;28;20045;-82
2021/12/11 12:57:54;;;;;;;44.80;27.20;;;4.10;99.90;;;;;;4997845;28;20057;-82
2021/12/11 13:00:43;;;;;;;46.97;27.73;;;4.00;99.90;;;;;;5010955;28;20121;-82
2021/12/11 13:03:16;;;;;;;53.38;28.83;;;4.00;99.90;;;;;;4998032;28;20050;-82
2021/12/11 13:05:46;;;;;;;44.85;28.55;;;4.00;99.90;;;;;;5012909;28;20061;-82
2021/12/11 13:08:38;;;;;;;47.35;28.02;;;3.80;99.90;;;;;;4987648;28;20048;-82